Terminal Aerodrome Forecast
Issued by NWS Mt. Holly, NJ

Home | Current Version | Previous Version | Text Only | Print | Product List | Glossary On
Versions: 1 2 3 4 5 6 7 8 9 10 11 12 13 14 15
000
FTUS41 KPHI 271138
TAFABE
TAF
KABE 271138Z 2712/2812 20005KT P6SM SCT018 BKN120
      TEMPO 2712/2714 BKN018
     FM271500 21009KT P6SM SCT025
     FM271700 23010G17KT P6SM BKN035
      TEMPO 2720/2722 4SM TSRA OVC030CB
     FM280000 20006KT P6SM SCT100 BKN200
     FM280900 22003KT 4SM BR SCT015=

USA.gov is the U.S. government's official web portal to all federal, state and local government web resources and services.